sensor_id;sensor_type;location;lat;lon;timestamp;pressure;altitude;pressure_sealevel;temperature;humidity
65175;BME280;51761;42.126;24.752;2022-12-20T00:02:15;101958.47;;;1.01;71.16
65175;BME280;51761;42.126;24.752;2022-12-20T00:04:40;101950.19;;;0.88;70.91
65175;BME280;51761;42.126;24.752;2022-12-20T00:07:06;101951.59;;;0.85;70.86
65175;BME280;51761;42.126;24.752;2022-12-20T00:09:31;101970.22;;;0.88;71.85
65175;BME280;51761;42.126;24.752;2022-12-20T00:11:57;101949.13;;;0.84;71.36
65175;BME280;51761;42.126;24.752;2022-12-20T00:14:22;101951.69;;;0.80;71.81
65175;BME280;51761;42.126;24.752;2022-12-20T00:16:47;101960.22;;;0.79;72.47
65175;BME280;51761;42.126;24.752;2022-12-20T00:19:13;101961.38;;;0.91;72.02
65175;BME280;51761;42.126;24.752;2022-12-20T00:21:38;101967.22;;;1.03;72.22
65175;BME280;51761;42.126;24.752;2022-12-20T00:24:05;101968.22;;;0.94;72.83
65175;BME280;51761;42.126;24.752;2022-12-20T00:26:32;101953.03;;;0.96;72.31
65175;BME280;51761;42.126;24.752;2022-12-20T00:28:59;101956.38;;;0.93;72.18
65175;BME280;51761;42.126;24.752;2022-12-20T00:31:27;101958.44;;;0.88;72.43
65175;BME280;51761;42.126;24.752;2022-12-20T00:33:54;101954.56;;;0.89;72.07
65175;BME280;51761;42.126;24.752;2022-12-20T00:36:22;101954.00;;;0.73;72.77
65175;BME280;51761;42.126;24.752;2022-12-20T00:38:49;101937.47;;;0.60;73.02
65175;BME280;51761;42.126;24.752;2022-12-20T00:41:20;101968.88;;;0.72;73.21
65175;BME280;51761;42.126;24.752;2022-12-20T00:43:46;101946.16;;;0.67;73.10
65175;BME280;51761;42.126;24.752;2022-12-20T00:46:13;101951.47;;;0.77;72.76
65175;BME280;51761;42.126;24.752;2022-12-20T00:48:39;101963.47;;;0.81;72.65
65175;BME280;51761;42.126;24.752;2022-12-20T00:51:11;101954.00;;;0.73;73.02
65175;BME280;51761;42.126;24.752;2022-12-20T00:53:38;101945.63;;;0.65;73.24
65175;BME280;51761;42.126;24.752;2022-12-20T00:56:05;101932.25;;;0.58;74.11
65175;BME280;51761;42.126;24.752;2022-12-20T00:58:32;101948.56;;;0.68;74.76
65175;BME280;51761;42.126;24.752;2022-12-20T01:00:58;101940.13;;;0.65;74.98
65175;BME280;51761;42.126;24.752;2022-12-20T01:03:25;101938.69;;;0.67;75.95
65175;BME280;51761;42.126;24.752;2022-12-20T01:05:52;101937.66;;;0.63;76.41
65175;BME280;51761;42.126;24.752;2022-12-20T01:08:19;101923.00;;;0.54;76.94
65175;BME280;51761;42.126;24.752;2022-12-20T01:10:45;101937.66;;;0.63;77.18
65175;BME280;51761;42.126;24.752;2022-12-20T01:13:10;101930.84;;;0.61;77.44
65175;BME280;51761;42.126;24.752;2022-12-20T01:15:36;101924.47;;;0.47;77.85
65175;BME280;51761;42.126;24.752;2022-12-20T01:18:02;101927.50;;;0.64;77.88
65175;BME280;51761;42.126;24.752;2022-12-20T01:20:27;101935.25;;;0.62;77.97
65175;BME280;51761;42.126;24.752;2022-12-20T01:22:52;101911.13;;;0.40;78.34
65175;BME280;51761;42.126;24.752;2022-12-20T01:25:19;101927.38;;;0.55;78.60
65175;BME280;51761;42.126;24.752;2022-12-20T01:27:45;101924.09;;;0.53;78.44
65175;BME280;51761;42.126;24.752;2022-12-20T01:30:11;101915.84;;;0.53;78.55
65175;BME280;51761;42.126;24.752;2022-12-20T01:32:36;101886.97;;;0.37;78.12
65175;BME280;51761;42.126;24.752;2022-12-20T01:35:02;101909.00;;;0.51;78.27
65175;BME280;51761;42.126;24.752;2022-12-20T01:37:27;101877.84;;;0.42;77.32
65175;BME280;51761;42.126;24.752;2022-12-20T01:39:53;101894.75;;;0.49;77.96
65175;BME280;51761;42.126;24.752;2022-12-20T01:42:19;101869.00;;;0.13;79.00
65175;BME280;51761;42.126;24.752;2022-12-20T01:47:11;101876.03;;;0.19;79.02
65175;BME280;51761;42.126;24.752;2022-12-20T01:49:41;101896.22;;;0.28;78.96
65175;BME280;51761;42.126;24.752;2022-12-20T01:52:11;101899.72;;;0.15;79.54
65175;BME280;51761;42.126;24.752;2022-12-20T01:54:44;101889.94;;;0.09;79.83
65175;BME280;51761;42.126;24.752;2022-12-20T01:57:19;101883.34;;;-0.08;80.60
65175;BME280;51761;42.126;24.752;2022-12-20T01:59:46;101880.16;;;0.03;80.85
65175;BME280;51761;42.126;24.752;2022-12-20T02:02:13;101866.72;;;0.01;80.32
65175;BME280;51761;42.126;24.752;2022-12-20T02:04:38;101873.47;;;0.09;79.47
65175;BME280;51761;42.126;24.752;2022-12-20T02:07:05;101882.66;;;0.18;79.34
65175;BME280;51761;42.126;24.752;2022-12-20T02:09:33;101851.63;;;-0.01;79.12
65175;BME280;51761;42.126;24.752;2022-12-20T02:12:23;101877.97;;;0.18;79.06
65175;BME280;51761;42.126;24.752;2022-12-20T02:18:28;101860.41;;;0.01;79.29
65175;BME280;51761;42.126;24.752;2022-12-20T02:29:39;101850.00;;;-0.02;79.62
65175;BME280;51761;42.126;24.752;2022-12-20T02:32:21;101872.03;;;0.11;79.45
65175;BME280;51761;42.126;24.752;2022-12-20T02:34:49;101860.19;;;-0.03;79.67
65175;BME280;51761;42.126;24.752;2022-12-20T02:37:15;101874.56;;;0.08;79.51
65175;BME280;51761;42.126;24.752;2022-12-20T02:39:41;101872.25;;;0.15;79.40
65175;BME280;51761;42.126;24.752;2022-12-20T02:42:11;101868.25;;;0.07;79.36
65175;BME280;51761;42.126;24.752;2022-12-20T02:44:41;101866.03;;;0.09;79.34
65175;BME280;51761;42.126;24.752;2022-12-20T02:47:39;101861.88;;;0.12;79.62
65175;BME280;51761;42.126;24.752;2022-12-20T02:50:08;101862.66;;;0.12;79.17
65175;BME280;51761;42.126;24.752;2022-12-20T02:52:35;101865.13;;;0.14;79.28
65175;BME280;51761;42.126;24.752;2022-12-20T02:55:02;101874.03;;;0.24;78.84
65175;BME280;51761;42.126;24.752;2022-12-20T02:57:36;101862.72;;;0.26;78.68
65175;BME280;51761;42.126;24.752;2022-12-20T03:00:14;101834.56;;;0.02;78.92
65175;BME280;51761;42.126;24.752;2022-12-20T03:02:42;101850.66;;;0.08;79.56
65175;BME280;51761;42.126;24.752;2022-12-20T03:05:27;101849.81;;;-0.05;79.43
65175;BME280;51761;42.126;24.752;2022-12-20T03:07:53;101855.34;;;0.08;80.06
65175;BME280;51761;42.126;24.752;2022-12-20T03:10:20;101831.31;;;0.00;79.48
65175;BME280;51761;42.126;24.752;2022-12-20T03:12:46;101846.47;;;0.29;82.87
65175;BME280;51761;42.126;24.752;2022-12-20T03:15:11;101825.25;;;0.16;80.59
65175;BME280;51761;42.126;24.752;2022-12-20T03:17:37;101819.63;;;0.08;80.59
65175;BME280;51761;42.126;24.752;2022-12-20T03:20:04;101850.59;;;0.27;80.12
65175;BME280;51761;42.126;24.752;2022-12-20T03:22:31;101841.84;;;0.25;79.51
65175;BME280;51761;42.126;24.752;2022-12-20T03:24:58;101817.41;;;0.10;78.50
65175;BME280;51761;42.126;24.752;2022-12-20T03:27:23;101832.34;;;0.04;79.62
65175;BME280;51761;42.126;24.752;2022-12-20T03:29:50;101825.44;;;-0.12;80.41
65175;BME280;51761;42.126;24.752;2022-12-20T03:32:15;101822.41;;;-0.10;79.86
65175;BME280;51761;42.126;24.752;2022-12-20T03:34:41;101847.06;;;-0.05;79.54
65175;BME280;51761;42.126;24.752;2022-12-20T03:37:06;101854.91;;;0.01;79.15
65175;BME280;51761;42.126;24.752;2022-12-20T03:39:32;101854.88;;;0.19;78.00
65175;BME280;51761;42.126;24.752;2022-12-20T03:41:57;101859.16;;;0.25;77.74
65175;BME280;51761;42.126;24.752;2022-12-20T03:44:22;101861.09;;;0.25;77.88
65175;BME280;51761;42.126;24.752;2022-12-20T03:46:49;101853.91;;;0.10;78.38
65175;BME280;51761;42.126;24.752;2022-12-20T03:49:15;101869.13;;;-0.10;78.96
65175;BME280;51761;42.126;24.752;2022-12-20T03:51:40;101869.63;;;-0.08;79.02
65175;BME280;51761;42.126;24.752;2022-12-20T03:54:06;101851.97;;;-0.21;80.04
65175;BME280;51761;42.126;24.752;2022-12-20T03:56:32;101855.81;;;-0.22;79.97
65175;BME280;51761;42.126;24.752;2022-12-20T03:58:57;101862.44;;;-0.23;79.97
65175;BME280;51761;42.126;24.752;2022-12-20T04:01:25;101858.41;;;-0.12;78.79
65175;BME280;51761;42.126;24.752;2022-12-20T04:03:51;101857.81;;;-0.09;77.66
65175;BME280;51761;42.126;24.752;2022-12-20T04:06:17;101827.69;;;-0.14;76.26
65175;BME280;51761;42.126;24.752;2022-12-20T04:08:43;101857.53;;;-0.07;77.90
65175;BME280;51761;42.126;24.752;2022-12-20T04:11:08;101854.19;;;-0.04;77.68
65175;BME280;51761;42.126;24.752;2022-12-20T04:13:49;101862.78;;;-0.11;77.36
65175;BME280;51761;42.126;24.752;2022-12-20T04:16:18;101847.41;;;-0.12;76.44
65175;BME280;51761;42.126;24.752;2022-12-20T04:18:43;101867.09;;;-0.05;76.99
65175;BME280;51761;42.126;24.752;2022-12-20T04:21:10;101844.00;;;-0.22;77.27
65175;BME280;51761;42.126;24.752;2022-12-20T04:23:37;101862.19;;;-0.08;76.83
65175;BME280;51761;42.126;24.752;2022-12-20T04:26:04;101855.66;;;-0.12;76.86
65175;BME280;51761;42.126;24.752;2022-12-20T04:28:32;101854.78;;;-0.26;77.65
65175;BME280;51761;42.126;24.752;2022-12-20T04:30:58;101854.97;;;-0.04;76.96
65175;BME280;51761;42.126;24.752;2022-12-20T04:33:24;101860.97;;;-0.02;76.64
65175;BME280;51761;42.126;24.752;2022-12-20T04:35:50;101847.13;;;-0.10;77.19
65175;BME280;51761;42.126;24.752;2022-12-20T04:38:17;101866.19;;;-0.01;77.47
65175;BME280;51761;42.126;24.752;2022-12-20T04:40:43;101857.25;;;0.07;76.82
65175;BME280;51761;42.126;24.752;2022-12-20T04:43:08;101860.63;;;0.04;77.19
65175;BME280;51761;42.126;24.752;2022-12-20T04:45:34;101844.91;;;-0.08;77.59
65175;BME280;51761;42.126;24.752;2022-12-20T04:48:00;101841.56;;;-0.05;77.41
65175;BME280;51761;42.126;24.752;2022-12-20T04:50:26;101853.72;;;0.07;77.41
65175;BME280;51761;42.126;24.752;2022-12-20T04:52:51;101869.22;;;-0.02;77.98
65175;BME280;51761;42.126;24.752;2022-12-20T04:55:39;101864.03;;;-0.03;78.54
65175;BME280;51761;42.126;24.752;2022-12-20T04:58:05;101858.94;;;-0.10;78.64
65175;BME280;51761;42.126;24.752;2022-12-20T05:00:31;101856.44;;;-0.25;78.68
65175;BME280;51761;42.126;24.752;2022-12-20T05:02:57;101852.94;;;-0.30;78.63
65175;BME280;51761;42.126;24.752;2022-12-20T05:05:22;101850.03;;;-0.39;78.88
65175;BME280;51761;42.126;24.752;2022-12-20T05:07:49;101844.53;;;-0.39;79.09
65175;BME280;51761;42.126;24.752;2022-12-20T05:10:14;101853.81;;;-0.35;78.15
65175;BME280;51761;42.126;24.752;2022-12-20T05:12:40;101848.72;;;-0.41;78.49
65175;BME280;51761;42.126;24.752;2022-12-20T05:15:06;101846.00;;;-0.46;79.07
65175;BME280;51761;42.126;24.752;2022-12-20T05:17:32;101841.72;;;-0.52;79.64
65175;BME280;51761;42.126;24.752;2022-12-20T05:19:57;101839.22;;;-0.49;82.61
65175;BME280;51761;42.126;24.752;2022-12-20T05:22:23;101836.03;;;-0.37;86.95
65175;BME280;51761;42.126;24.752;2022-12-20T05:25:09;101797.13;;;-0.63;84.47
65175;BME280;51761;42.126;24.752;2022-12-20T05:27:53;101833.91;;;-0.45;84.76
65175;BME280;51761;42.126;24.752;2022-12-20T05:30:19;101843.16;;;-0.36;86.98
65175;BME280;51761;42.126;24.752;2022-12-20T05:32:44;101842.00;;;-0.17;86.61
65175;BME280;51761;42.126;24.752;2022-12-20T05:35:10;101838.53;;;-0.22;84.68
65175;BME280;51761;42.126;24.752;2022-12-20T05:37:35;101838.59;;;-0.09;85.94
65175;BME280;51761;42.126;24.752;2022-12-20T05:40:01;101829.75;;;-0.06;85.78
65175;BME280;51761;42.126;24.752;2022-12-20T05:42:26;101838.44;;;-0.17;84.37
65175;BME280;51761;42.126;24.752;2022-12-20T05:44:52;101832.66;;;-0.16;84.66
65175;BME280;51761;42.126;24.752;2022-12-20T05:47:17;101827.34;;;-0.26;83.83
65175;BME280;51761;42.126;24.752;2022-12-20T05:49:43;101839.88;;;-0.20;83.13
65175;BME280;51761;42.126;24.752;2022-12-20T05:52:08;101835.69;;;-0.17;84.03
65175;BME280;51761;42.126;24.752;2022-12-20T05:54:34;101834.00;;;-0.13;82.67
65175;BME280;51761;42.126;24.752;2022-12-20T05:57:00;101833.84;;;-0.03;83.57
65175;BME280;51761;42.126;24.752;2022-12-20T05:59:25;101837.91;;;-0.01;83.45
65175;BME280;51761;42.126;24.752;2022-12-20T06:01:51;101837.06;;;0.17;81.07
65175;BME280;51761;42.126;24.752;2022-12-20T06:04:16;101832.34;;;0.36;81.19
65175;BME280;51761;42.126;24.752;2022-12-20T06:06:42;101809.03;;;0.60;80.92
65175;BME280;51761;42.126;24.752;2022-12-20T06:09:07;101844.09;;;1.22;79.28
65175;BME280;51761;42.126;24.752;2022-12-20T06:11:33;101835.63;;;1.67;74.90
65175;BME280;51761;42.126;24.752;2022-12-20T06:13:58;101839.38;;;2.07;73.21
65175;BME280;51761;42.126;24.752;2022-12-20T06:16:24;101837.97;;;2.40;73.52
65175;BME280;51761;42.126;24.752;2022-12-20T06:18:49;101848.91;;;2.84;71.42
65175;BME280;51761;42.126;24.752;2022-12-20T06:21:15;101839.13;;;3.16;69.81
65175;BME280;51761;42.126;24.752;2022-12-20T06:23:40;101834.66;;;3.37;69.66
65175;BME280;51761;42.126;24.752;2022-12-20T06:26:06;101840.06;;;3.76;69.67
65175;BME280;51761;42.126;24.752;2022-12-20T06:28:34;101841.19;;;4.09;67.29
65175;BME280;51761;42.126;24.752;2022-12-20T06:31:00;101814.84;;;4.29;65.55
65175;BME280;51761;42.126;24.752;2022-12-20T06:33:25;101840.31;;;4.60;62.40
65175;BME280;51761;42.126;24.752;2022-12-20T06:35:51;101817.50;;;4.63;64.40
65175;BME280;51761;42.126;24.752;2022-12-20T06:38:17;101848.00;;;5.00;63.30
65175;BME280;51761;42.126;24.752;2022-12-20T06:40:43;101843.16;;;5.26;62.79
65175;BME280;51761;42.126;24.752;2022-12-20T06:43:08;101848.81;;;5.58;59.95
65175;BME280;51761;42.126;24.752;2022-12-20T06:45:34;101841.34;;;5.79;60.93
65175;BME280;51761;42.126;24.752;2022-12-20T06:48:00;101834.72;;;5.92;59.04
65175;BME280;51761;42.126;24.752;2022-12-20T06:50:25;101825.06;;;5.98;59.34
65175;BME280;51761;42.126;24.752;2022-12-20T06:52:52;101835.78;;;6.20;57.94
65175;BME280;51761;42.126;24.752;2022-12-20T06:55:17;101840.03;;;6.38;58.36
65175;BME280;51761;42.126;24.752;2022-12-20T06:57:42;101845.19;;;6.60;57.06
65175;BME280;51761;42.126;24.752;2022-12-20T07:00:08;101832.47;;;6.59;56.02
65175;BME280;51761;42.126;24.752;2022-12-20T07:02:34;101846.22;;;6.55;55.52
65175;BME280;51761;42.126;24.752;2022-12-20T07:05:00;101842.75;;;6.58;55.32
65175;BME280;51761;42.126;24.752;2022-12-20T07:07:25;101843.97;;;6.49;54.58
65175;BME280;51761;42.126;24.752;2022-12-20T07:09:51;101840.38;;;6.81;55.10
65175;BME280;51761;42.126;24.752;2022-12-20T07:12:17;101818.63;;;7.07;54.82
65175;BME280;51761;42.126;24.752;2022-12-20T07:14:43;101837.38;;;7.58;54.67
65175;BME280;51761;42.126;24.752;2022-12-20T07:17:09;101815.38;;;9.21;97.15
65175;BME280;51761;42.126;24.752;2022-12-20T07:19:35;101831.34;;;10.84;92.38
65175;BME280;51761;42.126;24.752;2022-12-20T07:22:01;101821.44;;;11.86;80.10
65175;BME280;51761;42.126;24.752;2022-12-20T07:24:26;101820.28;;;12.50;72.11
65175;BME280;51761;42.126;24.752;2022-12-20T07:26:52;101839.13;;;12.89;60.89
65175;BME280;51761;42.126;24.752;2022-12-20T07:29:18;101834.91;;;13.49;60.29
65175;BME280;51761;42.126;24.752;2022-12-20T07:31:43;101818.50;;;12.71;40.74
65175;BME280;51761;42.126;24.752;2022-12-20T07:34:09;101821.88;;;12.18;41.30
65175;BME280;51761;42.126;24.752;2022-12-20T07:36:35;101824.88;;;11.50;43.05
65175;BME280;51761;42.126;24.752;2022-12-20T07:39:00;101815.81;;;10.45;43.20
65175;BME280;51761;42.126;24.752;2022-12-20T07:41:26;101817.06;;;10.28;44.51
65175;BME280;51761;42.126;24.752;2022-12-20T07:43:51;101809.94;;;10.12;44.08
65175;BME280;51761;42.126;24.752;2022-12-20T07:46:17;101808.41;;;9.45;46.31
65175;BME280;51761;42.126;24.752;2022-12-20T07:48:43;101787.63;;;9.09;46.81
65175;BME280;51761;42.126;24.752;2022-12-20T07:51:13;101803.06;;;9.37;45.33
65175;BME280;51761;42.126;24.752;2022-12-20T07:53:47;101809.31;;;9.49;45.47
65175;BME280;51761;42.126;24.752;2022-12-20T07:56:15;101800.03;;;9.27;46.25
65175;BME280;51761;42.126;24.752;2022-12-20T07:58:43;101808.53;;;9.49;46.44
65175;BME280;51761;42.126;24.752;2022-12-20T08:01:10;101804.69;;;9.38;46.15
65175;BME280;51761;42.126;24.752;2022-12-20T08:03:41;101784.47;;;9.26;45.93
65175;BME280;51761;42.126;24.752;2022-12-20T08:06:08;101774.13;;;9.60;46.46
65175;BME280;51761;42.126;24.752;2022-12-20T08:08:36;101804.97;;;9.67;45.80
65175;BME280;51761;42.126;24.752;2022-12-20T08:11:03;101795.56;;;9.56;45.72
65175;BME280;51761;42.126;24.752;2022-12-20T08:13:31;101788.59;;;9.66;46.20
65175;BME280;51761;42.126;24.752;2022-12-20T08:15:58;101771.31;;;9.26;46.03
65175;BME280;51761;42.126;24.752;2022-12-20T08:18:23;101784.47;;;9.26;46.99
65175;BME280;51761;42.126;24.752;2022-12-20T08:20:49;101759.88;;;9.31;47.23
65175;BME280;51761;42.126;24.752;2022-12-20T08:23:14;101779.25;;;9.77;46.77
65175;BME280;51761;42.126;24.752;2022-12-20T08:25:40;101773.59;;;9.55;45.63
65175;BME280;51761;42.126;24.752;2022-12-20T08:28:05;101779.94;;;9.71;45.60
65175;BME280;51761;42.126;24.752;2022-12-20T08:30:31;101780.53;;;9.99;44.24
65175;BME280;51761;42.126;24.752;2022-12-20T08:32:56;101760.88;;;10.11;44.85
65175;BME280;51761;42.126;24.752;2022-12-20T08:35:22;101754.03;;;9.89;45.35
65175;BME280;51761;42.126;24.752;2022-12-20T08:37:50;101758.91;;;9.58;45.09
65175;BME280;51761;42.126;24.752;2022-12-20T08:40:15;101771.00;;;10.00;44.59
65175;BME280;51761;42.126;24.752;2022-12-20T08:42:41;101761.16;;;10.06;44.49
65175;BME280;51761;42.126;24.752;2022-12-20T08:45:06;101757.28;;;10.10;44.03
65175;BME280;51761;42.126;24.752;2022-12-20T08:47:32;101752.41;;;9.88;45.11
65175;BME280;51761;42.126;24.752;2022-12-20T08:49:58;101755.28;;;10.11;45.04
65175;BME280;51761;42.126;24.752;2022-12-20T08:52:23;101740.53;;;10.52;44.61
65175;BME280;51761;42.126;24.752;2022-12-20T08:54:49;101757.41;;;10.59;43.07
65175;BME280;51761;42.126;24.752;2022-12-20T08:57:14;101749.66;;;10.71;42.32
65175;BME280;51761;42.126;24.752;2022-12-20T08:59:40;101739.09;;;10.84;42.08
65175;BME280;51761;42.126;24.752;2022-12-20T09:02:05;101740.91;;;10.50;43.61
65175;BME280;51761;42.126;24.752;2022-12-20T09:04:31;101736.56;;;10.75;42.64
65175;BME280;51761;42.126;24.752;2022-12-20T09:06:56;101732.94;;;10.97;41.65
65175;BME280;51761;42.126;24.752;2022-12-20T09:09:22;101704.22;;;11.00;41.36
65175;BME280;51761;42.126;24.752;2022-12-20T09:11:47;101721.69;;;11.45;40.41
65175;BME280;51761;42.126;24.752;2022-12-20T09:14:13;101723.91;;;11.33;39.34
65175;BME280;51761;42.126;24.752;2022-12-20T09:16:38;101731.09;;;11.08;40.08
65175;BME280;51761;42.126;24.752;2022-12-20T09:19:04;101718.66;;;11.05;39.45
65175;BME280;51761;42.126;24.752;2022-12-20T09:21:30;101715.16;;;11.08;40.64
65175;BME280;51761;42.126;24.752;2022-12-20T09:23:56;101704.97;;;10.75;39.89
65175;BME280;51761;42.126;24.752;2022-12-20T09:26:23;101697.72;;;10.93;39.71
65175;BME280;51761;42.126;24.752;2022-12-20T09:28:50;101679.97;;;10.82;39.99
65175;BME280;51761;42.126;24.752;2022-12-20T09:31:21;101699.22;;;11.12;40.32
65175;BME280;51761;42.126;24.752;2022-12-20T09:33:47;101695.44;;;11.27;40.31
65175;BME280;51761;42.126;24.752;2022-12-20T09:36:14;101679.31;;;11.47;39.50
65175;BME280;51761;42.126;24.752;2022-12-20T09:38:41;101657.56;;;11.33;39.08
65175;BME280;51761;42.126;24.752;2022-12-20T09:41:25;101662.19;;;11.22;39.97
65175;BME280;51761;42.126;24.752;2022-12-20T09:43:53;101648.00;;;11.34;39.79
65175;BME280;51761;42.126;24.752;2022-12-20T09:46:20;101667.94;;;11.62;39.95
65175;BME280;51761;42.126;24.752;2022-12-20T09:48:46;101667.75;;;11.48;37.51
65175;BME280;51761;42.126;24.752;2022-12-20T09:51:48;101657.00;;;10.95;39.26
65175;BME280;51761;42.126;24.752;2022-12-20T09:56:55;101642.72;;;11.00;40.08
65175;BME280;51761;42.126;24.752;2022-12-20T09:59:22;101638.78;;;11.34;39.21
65175;BME280;51761;42.126;24.752;2022-12-20T10:01:49;101641.44;;;11.23;38.54
65175;BME280;51761;42.126;24.752;2022-12-20T10:04:28;101634.47;;;11.40;39.07
65175;BME280;51761;42.126;24.752;2022-12-20T10:13:01;101626.16;;;11.76;37.62
65175;BME280;51761;42.126;24.752;2022-12-20T10:18:52;101625.44;;;11.83;39.05
65175;BME280;51761;42.126;24.752;2022-12-20T10:21:28;101625.78;;;11.48;39.44
65175;BME280;51761;42.126;24.752;2022-12-20T10:24:02;101616.88;;;11.39;38.13
65175;BME280;51761;42.126;24.752;2022-12-20T10:26:29;101587.44;;;11.52;38.24
65175;BME280;51761;42.126;24.752;2022-12-20T10:28:56;101585.19;;;11.61;37.76
65175;BME280;51761;42.126;24.752;2022-12-20T10:31:22;101588.53;;;11.74;39.38
65175;BME280;51761;42.126;24.752;2022-12-20T10:33:48;101568.03;;;11.63;38.74
65175;BME280;51761;42.126;24.752;2022-12-20T10:36:28;101582.31;;;11.91;39.55
65175;BME280;51761;42.126;24.752;2022-12-20T10:38:58;101572.00;;;11.98;38.61
65175;BME280;51761;42.126;24.752;2022-12-20T10:41:27;101567.00;;;11.81;39.15
65175;BME280;51761;42.126;24.752;2022-12-20T10:44:02;101567.06;;;11.88;39.17
65175;BME280;51761;42.126;24.752;2022-12-20T10:47:01;101554.38;;;11.25;38.15
65175;BME280;51761;42.126;24.752;2022-12-20T10:49:30;101557.59;;;11.30;38.85
65175;BME280;51761;42.126;24.752;2022-12-20T10:52:00;101543.88;;;11.18;39.04
65175;BME280;51761;42.126;24.752;2022-12-20T10:54:37;101544.09;;;11.36;38.31
65175;BME280;51761;42.126;24.752;2022-12-20T11:00:00;101535.66;;;11.32;38.28
65175;BME280;51761;42.126;24.752;2022-12-20T11:02:35;101523.81;;;11.82;38.31
65175;BME280;51761;42.126;24.752;2022-12-20T11:07:32;101523.81;;;11.79;37.82
65175;BME280;51761;42.126;24.752;2022-12-20T11:10:24;101497.56;;;11.21;38.60
65175;BME280;51761;42.126;24.752;2022-12-20T11:13:45;101510.47;;;11.32;38.21
65175;BME280;51761;42.126;24.752;2022-12-20T11:16:02;101480.16;;;11.38;38.03
65175;BME280;51761;42.126;24.752;2022-12-20T11:18:48;101506.47;;;11.30;39.25
65175;BME280;51761;42.126;24.752;2022-12-20T11:21:30;101492.06;;;11.28;38.72
65175;BME280;51761;42.126;24.752;2022-12-20T11:24:09;101490.34;;;11.20;39.91
65175;BME280;51761;42.126;24.752;2022-12-20T11:32:05;101447.69;;;10.94;39.43
65175;BME280;51761;42.126;24.752;2022-12-20T11:42:30;101445.78;;;10.39;39.43
65175;BME280;51761;42.126;24.752;2022-12-20T11:50:48;101434.91;;;10.60;40.18
65175;BME280;51761;42.126;24.752;2022-12-20T11:53:22;101410.50;;;10.27;39.79
65175;BME280;51761;42.126;24.752;2022-12-20T11:55:53;101406.94;;;10.01;39.71
65175;BME280;51761;42.126;24.752;2022-12-20T11:58:28;101432.38;;;9.96;40.16
65175;BME280;51761;42.126;24.752;2022-12-20T12:01:11;101418.78;;;10.20;39.25
65175;BME280;51761;42.126;24.752;2022-12-20T12:03:41;101413.13;;;9.91;40.59
65175;BME280;51761;42.126;24.752;2022-12-20T12:06:16;101416.78;;;9.69;40.23
65175;BME280;51761;42.126;24.752;2022-12-20T12:11:35;101397.25;;;9.24;41.51
65175;BME280;51761;42.126;24.752;2022-12-20T12:14:04;101401.22;;;9.45;41.51
65175;BME280;51761;42.126;24.752;2022-12-20T12:16:36;101394.47;;;9.69;40.11
65175;BME280;51761;42.126;24.752;2022-12-20T12:19:08;101404.38;;;9.66;40.31
65175;BME280;51761;42.126;24.752;2022-12-20T12:21:47;101374.50;;;9.44;40.58
65175;BME280;51761;42.126;24.752;2022-12-20T12:24:34;101392.47;;;9.69;40.73
65175;BME280;51761;42.126;24.752;2022-12-20T12:27:03;101391.53;;;9.62;41.70
65175;BME280;51761;42.126;24.752;2022-12-20T12:29:29;101385.19;;;9.39;42.36
65175;BME280;51761;42.126;24.752;2022-12-20T12:32:16;101370.34;;;9.35;41.80
65175;BME280;51761;42.126;24.752;2022-12-20T12:48:13;101390.91;;;9.24;41.79
65175;BME280;51761;42.126;24.752;2022-12-20T12:50:46;101389.03;;;9.09;42.09
65175;BME280;51761;42.126;24.752;2022-12-20T12:53:17;101376.38;;;9.15;41.82
65175;BME280;51761;42.126;24.752;2022-12-20T12:55:51;101385.91;;;8.91;41.98
65175;BME280;51761;42.126;24.752;2022-12-20T13:01:55;101386.03;;;8.98;42.15
65175;BME280;51761;42.126;24.752;2022-12-20T13:11:31;101391.09;;;8.51;42.80
65175;BME280;51761;42.126;24.752;2022-12-20T13:16:44;101388.28;;;8.32;43.51
65175;BME280;51761;42.126;24.752;2022-12-20T13:21:55;101377.91;;;7.79;44.66
65175;BME280;51761;42.126;24.752;2022-12-20T13:24:57;101377.00;;;7.91;44.71
65175;BME280;51761;42.126;24.752;2022-12-20T13:38:04;101366.44;;;7.81;44.80
65175;BME280;51761;42.126;24.752;2022-12-20T13:43:05;101336.72;;;8.04;44.77
65175;BME280;51761;42.126;24.752;2022-12-20T13:45:32;101365.94;;;8.29;44.01
65175;BME280;51761;42.126;24.752;2022-12-20T13:48:02;101353.94;;;8.09;45.03
65175;BME280;51761;42.126;24.752;2022-12-20T13:50:38;101365.28;;;7.82;45.29
65175;BME280;51761;42.126;24.752;2022-12-20T13:53:06;101367.09;;;7.93;44.81
65175;BME280;51761;42.126;24.752;2022-12-20T13:55:40;101348.81;;;7.58;45.30
65175;BME280;51761;42.126;24.752;2022-12-20T13:58:27;101353.56;;;7.42;46.12
65175;BME280;51761;42.126;24.752;2022-12-20T14:01:04;101359.22;;;7.46;45.87
65175;BME280;51761;42.126;24.752;2022-12-20T14:03:31;101364.84;;;7.49;46.55
65175;BME280;51761;42.126;24.752;2022-12-20T14:05:59;101362.81;;;7.15;46.51
65175;BME280;51761;42.126;24.752;2022-12-20T14:08:29;101339.50;;;6.89;47.24
65175;BME280;51761;42.126;24.752;2022-12-20T14:11:16;101360.13;;;6.88;47.58
65175;BME280;51761;42.126;24.752;2022-12-20T14:16:24;101347.06;;;6.33;48.67
65175;BME280;51761;42.126;24.752;2022-12-20T14:19:02;101354.41;;;6.26;49.03
65175;BME280;51761;42.126;24.752;2022-12-20T14:21:30;101354.88;;;6.16;49.45
65175;BME280;51761;42.126;24.752;2022-12-20T14:24:00;101356.19;;;6.07;49.77
65175;BME280;51761;42.126;24.752;2022-12-20T14:26:28;101346.63;;;6.04;50.69
65175;BME280;51761;42.126;24.752;2022-12-20T14:28:58;101344.44;;;5.98;50.17
65175;BME280;51761;42.126;24.752;2022-12-20T14:31:26;101349.00;;;5.78;50.86
65175;BME280;51761;42.126;24.752;2022-12-20T14:34:04;101324.75;;;5.51;51.33